createdAt,value
2023-01-06T00:00:43.424Z,1012
2023-01-06T00:01:46.689Z,1012
2023-01-06T00:02:49.547Z,1012.1
2023-01-06T00:03:53.182Z,1012
2023-01-06T00:04:56.732Z,1012
2023-01-06T00:06:00.435Z,1012
2023-01-06T00:07:04.447Z,1012
2023-01-06T00:08:06.896Z,1012
2023-01-06T00:09:09.694Z,1012
2023-01-06T00:10:13.582Z,1011.9
2023-01-06T00:11:16.609Z,1012
2023-01-06T00:12:20.003Z,1011.9
2023-01-06T00:13:23.198Z,1011.9
2023-01-06T00:14:27.153Z,1011.9
2023-01-06T00:15:31.613Z,1011.9
2023-01-06T00:16:35.035Z,1011.9
2023-01-06T00:17:37.801Z,1011.9
2023-01-06T00:18:41.077Z,1011.9
2023-01-06T00:19:45.230Z,1011.9
2023-01-06T00:20:48.314Z,1011.9
2023-01-06T00:21:51.630Z,1011.9
2023-01-06T00:22:54.353Z,1011.9
2023-01-06T00:23:57.401Z,1011.9
2023-01-06T00:25:14.481Z,1011.8
2023-01-06T00:26:18.836Z,1011.9
2023-01-06T00:27:22.037Z,1011.8
2023-01-06T00:28:25.123Z,1011.8
2023-01-06T00:29:28.852Z,1011.9
2023-01-06T00:30:33.587Z,1011.8
2023-01-06T00:31:38.063Z,1011.8
2023-01-06T00:32:41.165Z,1011.8
2023-01-06T00:33:44.859Z,1011.8
2023-01-06T00:34:48.292Z,1011.8
2023-01-06T00:35:52.060Z,1011.8
2023-01-06T00:36:54.843Z,1011.7
2023-01-06T00:37:57.866Z,1011.7
2023-01-06T00:39:00.920Z,1011.7
2023-01-06T00:40:03.728Z,1011.7
2023-01-06T00:41:06.697Z,1011.7
2023-01-06T00:42:10.013Z,1011.6
2023-01-06T00:43:12.259Z,1011.6
2023-01-06T00:44:15.707Z,1011.6
2023-01-06T00:45:19.061Z,1011.6
2023-01-06T00:46:23.437Z,1011.6
2023-01-06T00:47:26.841Z,1011.5
2023-01-06T00:48:30.109Z,1011.6
2023-01-06T00:49:33.628Z,1011.6
2023-01-06T00:50:37.071Z,1011.6
2023-01-06T00:51:40.220Z,1011.6
2023-01-06T00:52:43.524Z,1011.6
2023-01-06T00:53:46.572Z,1011.6
2023-01-06T00:54:48.717Z,1011.5
2023-01-06T00:55:50.691Z,1011.6
2023-01-06T00:56:53.780Z,1011.5
2023-01-06T00:57:56.883Z,1011.6
2023-01-06T00:58:59.375Z,1011.6
2023-01-06T01:00:02.820Z,1011.5
2023-01-06T01:01:05.993Z,1011.5
2023-01-06T01:02:10.595Z,1011.6
2023-01-06T01:03:14.528Z,1011.5
2023-01-06T01:04:18.965Z,1011.5
2023-01-06T01:05:21.744Z,1011.4
2023-01-06T01:06:25.061Z,1011.4
2023-01-06T01:07:27.978Z,1011.4
2023-01-06T01:08:31.225Z,1011.4
2023-01-06T01:09:34.272Z,1011.4
2023-01-06T01:10:37.365Z,1011.4
2023-01-06T01:11:40.374Z,1011.3
2023-01-06T01:12:43.077Z,1011.3
2023-01-06T01:13:46.237Z,1011.3
2023-01-06T01:14:49.102Z,1011.3
2023-01-06T01:15:52.299Z,1011.2
2023-01-06T01:16:56.439Z,1011.3
2023-01-06T01:17:59.798Z,1011.2
2023-01-06T01:19:02.943Z,1011.2
2023-01-06T01:20:05.507Z,1011.3
2023-01-06T01:21:08.884Z,1011.2
2023-01-06T01:22:12.348Z,1011.2
2023-01-06T01:23:15.081Z,1011.2
2023-01-06T01:24:18.130Z,1011.1
2023-01-06T01:25:21.941Z,1011.1
2023-01-06T01:26:25.036Z,1011.1
2023-01-06T01:27:27.837Z,1011.1
2023-01-06T01:28:30.626Z,1011.1
2023-01-06T01:29:33.407Z,1011.1
2023-01-06T01:30:37.078Z,1011.1
2023-01-06T01:31:40.807Z,1011
2023-01-06T01:32:44.464Z,1011
2023-01-06T01:33:48.977Z,1011
2023-01-06T01:34:52.167Z,1011
2023-01-06T01:35:55.015Z,1011
2023-01-06T01:36:58.041Z,1011
2023-01-06T01:38:01.660Z,1011
2023-01-06T01:39:04.749Z,1011
2023-01-06T01:40:07.213Z,1011
2023-01-06T01:41:10.260Z,1010.9
2023-01-06T01:42:13.330Z,1010.9
2023-01-06T01:43:17.340Z,1010.9
2023-01-06T01:44:20.066Z,1011
2023-01-06T01:45:23.406Z,1010.9
2023-01-06T01:46:26.895Z,1010.9
2023-01-06T01:47:30.445Z,1010.8
2023-01-06T01:48:34.075Z,1010.9
2023-01-06T01:49:37.953Z,1010.9
2023-01-06T01:50:41.193Z,1010.9
2023-01-06T01:51:44.731Z,1010.9
2023-01-06T01:52:48.527Z,1010.9
2023-01-06T01:53:51.521Z,1010.8
2023-01-06T01:54:54.578Z,1010.8
2023-01-06T01:55:57.334Z,1010.8
2023-01-06T01:57:00.097Z,1010.8
2023-01-06T01:58:03.432Z,1010.8
2023-01-06T01:59:06.726Z,1010.8
2023-01-06T02:00:10.235Z,1010.8
2023-01-06T02:01:13.237Z,1010.8
2023-01-06T02:02:16.847Z,1010.8
2023-01-06T02:03:21.617Z,1010.8
2023-01-06T02:04:25.821Z,1010.7
2023-01-06T02:05:29.746Z,1010.8
2023-01-06T02:06:32.590Z,1010.7
2023-01-06T02:07:35.584Z,1010.7
2023-01-06T02:08:39.045Z,1010.7
2023-01-06T02:09:42.733Z,1010.7
2023-01-06T02:10:46.161Z,1010.7
2023-01-06T02:11:49.146Z,1010.7
2023-01-06T02:12:51.098Z,1010.7
2023-01-06T02:13:54.727Z,1010.7
2023-01-06T02:14:58.075Z,1010.7
2023-01-06T02:16:01.178Z,1010.6
2023-01-06T02:17:04.682Z,1010.6
2023-01-06T02:18:07.536Z,1010.6
2023-01-06T02:19:10.312Z,1010.5
2023-01-06T02:20:13.880Z,1010.6
2023-01-06T02:21:17.843Z,1010.5
2023-01-06T02:22:20.815Z,1010.5
2023-01-06T02:23:24.650Z,1010.5
2023-01-06T02:24:27.781Z,1010.5
2023-01-06T02:25:30.549Z,1010.4
2023-01-06T02:26:33.622Z,1010.4
2023-01-06T02:27:36.116Z,1010.4
2023-01-06T02:28:39.181Z,1010.3
2023-01-06T02:29:41.988Z,1010.3
2023-01-06T02:30:44.708Z,1010.3
2023-01-06T02:31:48.370Z,1010.3
2023-01-06T02:32:51.148Z,1010.3
2023-01-06T02:33:54.488Z,1010.3
2023-01-06T02:34:57.505Z,1010.2
2023-01-06T02:36:01.417Z,1010.2
2023-01-06T02:37:05.614Z,1010.2
2023-01-06T02:38:09.507Z,1010.2
2023-01-06T02:39:13.013Z,1010.2
2023-01-06T02:40:16.229Z,1010.2
2023-01-06T02:41:19.088Z,1010.1
2023-01-06T02:42:21.601Z,1010.2
2023-01-06T02:43:24.459Z,1010.1
2023-01-06T02:44:27.188Z,1010.1
2023-01-06T02:45:30.253Z,1010.1
2023-01-06T02:46:33.872Z,1010.1
2023-01-06T02:47:37.150Z,1010
2023-01-06T02:48:39.940Z,1010
2023-01-06T02:49:43.335Z,1010
2023-01-06T02:50:46.315Z,1010
2023-01-06T02:51:49.929Z,1010
2023-01-06T02:52:53.181Z,1010
2023-01-06T02:53:56.092Z,1010
2023-01-06T02:54:58.996Z,1010
2023-01-06T02:56:01.780Z,1009.9
2023-01-06T02:57:05.196Z,1009.9
2023-01-06T02:58:08.941Z,1009.8
2023-01-06T02:59:12.247Z,1009.8
2023-01-06T03:00:15.635Z,1009.8
2023-01-06T03:01:19.315Z,1009.7
2023-01-06T03:02:23.785Z,1009.8
2023-01-06T03:03:27.447Z,1009.7
2023-01-06T03:04:30.921Z,1009.7
2023-01-06T03:05:34.408Z,1009.8
2023-01-06T03:06:37.508Z,1009.8
2023-01-06T03:07:41.065Z,1009.7
2023-01-06T03:08:45.170Z,1009.7
2023-01-06T03:09:47.976Z,1009.7
2023-01-06T03:10:51.152Z,1009.7
2023-01-06T03:11:55.169Z,1009.7
2023-01-06T03:12:57.340Z,1009.7
2023-01-06T03:14:00.326Z,1009.7
2023-01-06T03:15:03.694Z,1009.6
2023-01-06T03:16:07.206Z,1009.6
2023-01-06T03:17:10.745Z,1009.6
2023-01-06T03:18:14.209Z,1009.6
2023-01-06T03:19:17.289Z,1009.5
2023-01-06T03:20:20.136Z,1009.5
2023-01-06T03:21:22.870Z,1009.5
2023-01-06T03:22:26.134Z,1009.5
2023-01-06T03:23:29.767Z,1009.4
2023-01-06T03:24:33.352Z,1009.5
2023-01-06T03:25:36.162Z,1009.5
2023-01-06T03:26:39.005Z,1009.4
2023-01-06T03:27:41.960Z,1009.4
2023-01-06T03:28:44.683Z,1009.4
2023-01-06T03:29:46.910Z,1009.4
2023-01-06T03:30:50.355Z,1009.3
2023-01-06T03:31:53.675Z,1009.3
2023-01-06T03:32:57.054Z,1009.3
2023-01-06T03:34:00.256Z,1009.3
2023-01-06T03:35:03.623Z,1009.3
2023-01-06T03:36:06.392Z,1009.3
2023-01-06T03:37:09.213Z,1009.2
2023-01-06T03:38:12.009Z,1009.2
2023-01-06T03:39:15.639Z,1009.2
2023-01-06T03:40:19.269Z,1009.3
2023-01-06T03:41:22.538Z,1009.3
2023-01-06T03:42:36.830Z,1009.3
2023-01-06T03:43:40.221Z,1009.2
2023-01-06T03:44:43.395Z,1009.2
2023-01-06T03:45:46.274Z,1009.1
2023-01-06T03:46:49.138Z,1009.2
2023-01-06T03:47:52.539Z,1009.1
2023-01-06T03:48:55.567Z,1009.1
2023-01-06T03:49:58.554Z,1009
2023-01-06T03:51:01.599Z,1009
2023-01-06T03:52:04.789Z,1009
2023-01-06T03:53:07.913Z,1009
2023-01-06T03:54:11.179Z,1009
2023-01-06T03:55:14.479Z,1008.9
2023-01-06T03:56:18.416Z,1009
2023-01-06T03:57:21.691Z,1008.9
2023-01-06T03:58:24.793Z,1008.9
2023-01-06T03:59:27.513Z,1008.9
2023-01-06T04:00:30.795Z,1008.9
2023-01-06T04:01:34.265Z,1008.9
2023-01-06T04:02:37.488Z,1008.9
2023-01-06T04:03:40.400Z,1008.9
2023-01-06T04:04:43.374Z,1008.9
2023-01-06T04:05:46.439Z,1008.9
2023-01-06T04:06:49.407Z,1008.9
2023-01-06T04:07:52.496Z,1008.8
2023-01-06T04:08:55.876Z,1008.8
2023-01-06T04:09:58.937Z,1008.8
2023-01-06T04:11:02.512Z,1008.8
2023-01-06T04:12:06.097Z,1008.8
2023-01-06T04:13:09.205Z,1008.8
2023-01-06T04:14:12.334Z,1008.8
2023-01-06T04:15:15.468Z,1008.8
2023-01-06T04:16:18.302Z,1008.7
2023-01-06T04:17:22.089Z,1008.7
2023-01-06T04:18:25.420Z,1008.7
2023-01-06T04:19:28.762Z,1008.7
2023-01-06T04:20:32.483Z,1008.7
2023-01-06T04:21:35.811Z,1008.6
2023-01-06T04:22:39.461Z,1008.6
2023-01-06T04:23:42.176Z,1008.6
2023-01-06T04:24:45.495Z,1008.6
2023-01-06T04:25:48.868Z,1008.5
2023-01-06T04:26:52.424Z,1008.5
2023-01-06T04:27:56.312Z,1008.5
2023-01-06T04:28:59.406Z,1008.4
2023-01-06T04:30:02.667Z,1008.4
2023-01-06T04:31:05.802Z,1008.4
2023-01-06T04:32:08.868Z,1008.4
2023-01-06T04:33:12.075Z,1008.3
2023-01-06T04:34:15.174Z,1008.4
2023-01-06T04:35:18.581Z,1008.3
2023-01-06T04:36:21.392Z,1008.3
2023-01-06T04:37:24.236Z,1008.2
2023-01-06T04:38:26.636Z,1008.2
2023-01-06T04:39:29.814Z,1008.2
2023-01-06T04:40:32.904Z,1008.1
2023-01-06T04:41:35.698Z,1008.2
2023-01-06T04:42:39.656Z,1008.2
2023-01-06T04:43:43.226Z,1008.1
2023-01-06T04:44:46.388Z,1008.1
2023-01-06T04:45:49.369Z,1008.1
2023-01-06T04:46:53.165Z,1008.2
2023-01-06T04:47:55.393Z,1008
2023-01-06T04:48:58.747Z,1008
2023-01-06T04:50:00.918Z,1008.1
2023-01-06T04:51:04.961Z,1008
2023-01-06T04:52:08.378Z,1008
2023-01-06T04:53:11.554Z,1008
2023-01-06T04:54:14.609Z,1008
2023-01-06T04:55:17.867Z,1007.9
2023-01-06T04:56:21.290Z,1007.9
2023-01-06T04:57:24.105Z,1007.8
2023-01-06T04:58:27.955Z,1007.8
2023-01-06T04:59:32.096Z,1007.8
2023-01-06T05:00:35.293Z,1007.8
2023-01-06T05:01:38.943Z,1007.8
2023-01-06T05:02:42.102Z,1007.7
2023-01-06T05:03:45.245Z,1007.7
2023-01-06T05:04:48.805Z,1007.8
2023-01-06T05:05:52.790Z,1007.8
2023-01-06T05:06:55.775Z,1007.7
2023-01-06T05:07:58.647Z,1007.8
2023-01-06T05:09:01.960Z,1007.8
2023-01-06T05:10:04.723Z,1007.8
2023-01-06T05:11:08.405Z,1007.8
2023-01-06T05:12:11.251Z,1007.8
2023-01-06T05:13:14.679Z,1007.8
2023-01-06T05:14:21.394Z,1007.8
2023-01-06T05:15:25.478Z,1007.8
2023-01-06T05:16:29.142Z,1007.8
2023-01-06T05:17:33.212Z,1007.8
2023-01-06T05:18:36.005Z,1007.8
2023-01-06T05:19:39.377Z,1007.8
2023-01-06T05:20:43.383Z,1007.7
2023-01-06T05:21:46.583Z,1007.7
2023-01-06T05:22:50.292Z,1007.8
2023-01-06T05:23:53.628Z,1007.7
2023-01-06T05:24:56.700Z,1007.7
2023-01-06T05:25:59.434Z,1007.7
2023-01-06T05:27:02.741Z,1007.7
2023-01-06T05:28:05.177Z,1007.7
2023-01-06T05:29:08.177Z,1007.7
2023-01-06T05:30:11.765Z,1007.7
2023-01-06T05:31:16.389Z,1007.6
2023-01-06T05:32:20.191Z,1007.7
2023-01-06T05:33:23.188Z,1007.7
2023-01-06T05:34:25.647Z,1007.6
2023-01-06T05:35:29.031Z,1007.6
2023-01-06T05:36:32.415Z,1007.6
2023-01-06T05:37:35.851Z,1007.6
2023-01-06T05:38:39.128Z,1007.6
2023-01-06T05:39:41.936Z,1007.6
2023-01-06T05:40:45.366Z,1007.6
2023-01-06T05:41:48.110Z,1007.5
2023-01-06T05:42:51.468Z,1007.5
2023-01-06T05:43:54.883Z,1007.5
2023-01-06T05:44:57.662Z,1007.5
2023-01-06T05:46:01.729Z,1007.5
2023-01-06T05:47:06.227Z,1007.5
2023-01-06T05:48:09.831Z,1007.5
2023-01-06T05:49:13.056Z,1007.5
2023-01-06T05:50:16.806Z,1007.4
2023-01-06T05:51:19.856Z,1007.5
2023-01-06T05:52:22.851Z,1007.4
2023-01-06T05:53:25.710Z,1007.4
2023-01-06T05:54:28.778Z,1007.4
2023-01-06T05:55:31.289Z,1007.4
2023-01-06T05:56:34.023Z,1007.3
2023-01-06T05:57:37.360Z,1007.3
2023-01-06T05:58:39.879Z,1007.3
2023-01-06T05:59:43.228Z,1007.3
2023-01-06T06:00:46.666Z,1007.4
2023-01-06T06:01:50.422Z,1007.4
2023-01-06T06:02:54.525Z,1007.3
2023-01-06T06:03:57.813Z,1007.4
2023-01-06T06:05:01.377Z,1007.3
2023-01-06T06:06:04.069Z,1007.3
2023-01-06T06:07:07.465Z,1007.2
2023-01-06T06:08:10.603Z,1007.3
2023-01-06T06:09:13.944Z,1007.2
2023-01-06T06:10:17.022Z,1007.2
2023-01-06T06:11:20.217Z,1007.2
2023-01-06T06:12:23.316Z,1007.3
2023-01-06T06:13:25.307Z,1007.2
2023-01-06T06:14:28.390Z,1007.2
2023-01-06T06:15:30.698Z,1007.3
2023-01-06T06:16:34.242Z,1007.3
2023-01-06T06:17:38.160Z,1007.3
2023-01-06T06:18:42.281Z,1007.3
2023-01-06T06:19:45.347Z,1007.3
2023-01-06T06:20:48.470Z,1007.2
2023-01-06T06:21:52.134Z,1007.3
2023-01-06T06:22:54.919Z,1007.3
2023-01-06T06:23:57.985Z,1007.2
2023-01-06T06:25:00.517Z,1007.2
2023-01-06T06:26:03.681Z,1007.2
2023-01-06T06:27:07.047Z,1007.1
2023-01-06T06:28:09.535Z,1007.2
2023-01-06T06:29:12.335Z,1007.1
2023-01-06T06:30:14.754Z,1007.1
2023-01-06T06:31:18.632Z,1007.1
2023-01-06T06:32:22.445Z,1007.1
2023-01-06T06:33:26.672Z,1007.1
2023-01-06T06:34:31.124Z,1007
2023-01-06T06:35:34.493Z,1007
2023-01-06T06:36:37.342Z,1007
2023-01-06T06:37:40.070Z,1006.9
2023-01-06T06:38:43.385Z,1007
2023-01-06T06:39:46.687Z,1006.9
2023-01-06T06:40:49.288Z,1006.9
2023-01-06T06:41:52.393Z,1006.9
2023-01-06T06:42:55.174Z,1006.9
2023-01-06T06:43:57.987Z,1006.9
2023-01-06T06:45:00.977Z,1007
2023-01-06T06:46:03.549Z,1007
2023-01-06T06:47:07.270Z,1006.9
2023-01-06T06:48:09.715Z,1006.9
2023-01-06T06:49:12.441Z,1006.9
2023-01-06T06:50:16.632Z,1006.9
2023-01-06T06:51:19.647Z,1006.8
2023-01-06T06:52:22.276Z,1006.9
2023-01-06T06:53:24.861Z,1006.8
2023-01-06T06:54:28.579Z,1006.8
2023-01-06T06:55:31.906Z,1006.9
2023-01-06T06:56:34.908Z,1006.9
2023-01-06T06:57:37.889Z,1006.9
2023-01-06T06:58:41.218Z,1006.8
2023-01-06T06:59:45.219Z,1006.8
2023-01-06T07:00:48.654Z,1006.8
2023-01-06T07:01:51.023Z,1006.8
2023-01-06T07:02:54.755Z,1006.8
2023-01-06T07:03:58.499Z,1006.7
2023-01-06T07:05:02.091Z,1006.7
2023-01-06T07:06:06.069Z,1006.7
2023-01-06T07:07:09.582Z,1006.7
2023-01-06T07:08:12.786Z,1006.6
2023-01-06T07:09:14.938Z,1006.6
2023-01-06T07:10:18.095Z,1006.6
2023-01-06T07:11:21.131Z,1006.6
2023-01-06T07:12:24.161Z,1006.6
2023-01-06T07:13:26.882Z,1006.5
2023-01-06T07:14:30.313Z,1006.5
2023-01-06T07:15:33.744Z,1006.5
2023-01-06T07:16:37.683Z,1006.4
2023-01-06T07:17:40.191Z,1006.5
2023-01-06T07:18:43.848Z,1006.5
2023-01-06T07:19:47.880Z,1006.5
2023-01-06T07:20:51.542Z,1006.5
2023-01-06T07:21:55.762Z,1006.6
2023-01-06T07:22:58.951Z,1006.6
2023-01-06T07:24:02.538Z,1006.6
2023-01-06T07:25:06.935Z,1006.6
2023-01-06T07:26:10.922Z,1006.6
2023-01-06T07:27:14.596Z,1006.5
2023-01-06T07:28:17.020Z,1006.5
2023-01-06T07:29:20.102Z,1006.4
2023-01-06T07:30:23.027Z,1006.4
2023-01-06T07:31:26.474Z,1006.4
2023-01-06T07:32:29.898Z,1006.4
2023-01-06T07:33:32.985Z,1006.4
2023-01-06T07:34:35.557Z,1006.4
2023-01-06T07:35:38.427Z,1006.5
2023-01-06T07:36:42.221Z,1006.4
2023-01-06T07:37:46.414Z,1006.4
2023-01-06T07:38:50.281Z,1006.4
2023-01-06T07:39:53.455Z,1006.3
2023-01-06T07:40:56.559Z,1006.3
2023-01-06T07:41:59.058Z,1006.3
2023-01-06T07:43:02.737Z,1006.5
2023-01-06T07:44:05.541Z,1006.4
2023-01-06T07:45:08.698Z,1006.4
2023-01-06T07:46:11.271Z,1006.3
2023-01-06T07:47:14.348Z,1006.3
2023-01-06T07:48:17.836Z,1006.3
2023-01-06T07:49:21.601Z,1006.3
2023-01-06T07:50:26.743Z,1006.2
2023-01-06T07:51:30.021Z,1006.3
2023-01-06T07:52:34.286Z,1006.3
2023-01-06T07:53:38.548Z,1006.3
2023-01-06T07:54:41.692Z,1006.3
2023-01-06T07:55:45.158Z,1006.2
2023-01-06T07:56:48.878Z,1006.2
2023-01-06T07:57:52.582Z,1006.2
2023-01-06T07:58:55.872Z,1006.2
2023-01-06T07:59:59.190Z,1006.1
2023-01-06T08:01:03.033Z,1006.1
2023-01-06T08:02:06.271Z,1006.2
2023-01-06T08:03:09.850Z,1006.2
2023-01-06T08:04:14.012Z,1006.2
2023-01-06T08:05:17.457Z,1006.1
2023-01-06T08:06:20.555Z,1006
2023-01-06T08:07:23.338Z,1006
2023-01-06T08:08:26.978Z,1006
2023-01-06T08:09:31.169Z,1006
2023-01-06T08:10:34.622Z,1006
2023-01-06T08:11:38.138Z,1005.9
2023-01-06T08:12:41.108Z,1006
2023-01-06T08:13:44.200Z,1005.9
2023-01-06T08:14:47.259Z,1005.9
2023-01-06T08:15:50.485Z,1006
2023-01-06T08:16:54.197Z,1005.9
2023-01-06T08:17:57.731Z,1005.9
2023-01-06T08:19:00.710Z,1005.9
2023-01-06T08:20:03.711Z,1005.9
2023-01-06T08:21:07.434Z,1005.8
2023-01-06T08:22:10.522Z,1005.8
2023-01-06T08:23:13.976Z,1005.8
2023-01-06T08:24:17.630Z,1005.8
2023-01-06T08:25:21.718Z,1005.7
2023-01-06T08:26:25.287Z,1005.8
2023-01-06T08:27:28.136Z,1005.7
2023-01-06T08:28:31.807Z,1005.7
2023-01-06T08:29:35.023Z,1005.7
2023-01-06T08:30:38.188Z,1005.7
2023-01-06T08:31:41.457Z,1005.7
2023-01-06T08:32:44.809Z,1005.7
2023-01-06T08:33:47.873Z,1005.7
2023-01-06T08:34:50.989Z,1005.7
2023-01-06T08:35:53.783Z,1005.7
2023-01-06T08:36:56.881Z,1005.7
2023-01-06T08:38:00.279Z,1005.9
2023-01-06T08:39:03.711Z,1005.8
2023-01-06T08:40:07.410Z,1005.8
2023-01-06T08:41:11.790Z,1005.8
2023-01-06T08:42:14.980Z,1005.7
2023-01-06T08:43:17.554Z,1005.7
2023-01-06T08:44:20.601Z,1005.6
2023-01-06T08:45:24.317Z,1005.7
2023-01-06T08:46:27.268Z,1005.7
2023-01-06T08:47:30.249Z,1005.7
2023-01-06T08:48:32.712Z,1005.7
2023-01-06T08:49:35.299Z,1005.8
2023-01-06T08:50:38.367Z,1005.7
2023-01-06T08:51:41.731Z,1005.8
2023-01-06T08:52:44.766Z,1005.7
2023-01-06T08:53:47.863Z,1005.7
2023-01-06T08:54:51.271Z,1005.6
2023-01-06T08:55:54.993Z,1005.6
2023-01-06T08:56:59.099Z,1005.6
2023-01-06T08:58:02.117Z,1005.6
2023-01-06T08:59:05.308Z,1005.6
2023-01-06T09:00:08.029Z,1005.6
2023-01-06T09:01:10.939Z,1005.5
2023-01-06T09:02:14.421Z,1005.5
2023-01-06T09:03:18.297Z,1005.5
2023-01-06T09:04:21.926Z,1005.5
2023-01-06T09:05:25.089Z,1005.5
2023-01-06T09:06:28.560Z,1005.5
2023-01-06T09:07:32.251Z,1005.5
2023-01-06T09:08:35.328Z,1005.5
2023-01-06T09:09:38.405Z,1005.5
2023-01-06T09:10:41.410Z,1005.5
2023-01-06T09:11:45.263Z,1005.5
2023-01-06T09:12:49.168Z,1005.5
2023-01-06T09:13:52.948Z,1005.5
2023-01-06T09:14:56.365Z,1005.4
2023-01-06T09:15:59.842Z,1005.4
2023-01-06T09:17:02.946Z,1005.5
2023-01-06T09:18:06.231Z,1005.5
2023-01-06T09:19:09.621Z,1005.5
2023-01-06T09:20:12.012Z,1005.4
2023-01-06T09:21:15.110Z,1005.5
2023-01-06T09:22:18.124Z,1005.5
2023-01-06T09:23:21.411Z,1005.5
2023-01-06T09:24:24.762Z,1005.5
2023-01-06T09:25:27.464Z,1005.5
2023-01-06T09:26:30.738Z,1005.5
2023-01-06T09:27:34.431Z,1005.5
2023-01-06T09:28:38.662Z,1005.5
2023-01-06T09:29:41.833Z,1005.4
2023-01-06T09:30:44.736Z,1005.4
2023-01-06T09:31:47.991Z,1005.5
2023-01-06T09:32:52.073Z,1005.4
2023-01-06T09:33:55.470Z,1005.3
2023-01-06T09:34:58.755Z,1005.4
2023-01-06T09:36:02.155Z,1005.3
2023-01-06T09:37:05.273Z,1005.4
2023-01-06T09:38:08.630Z,1005.5
2023-01-06T09:39:12.641Z,1005.4
2023-01-06T09:40:16.008Z,1005.4
2023-01-06T09:41:18.434Z,1005.4
2023-01-06T09:42:21.494Z,1005.4
2023-01-06T09:43:25.064Z,1005.4
2023-01-06T09:44:28.983Z,1005.3
2023-01-06T09:45:32.392Z,1005.4
2023-01-06T09:46:35.410Z,1005.3
2023-01-06T09:47:39.148Z,1005.3
2023-01-06T09:48:42.596Z,1005.3
2023-01-06T09:49:45.979Z,1005.4
2023-01-06T09:50:48.738Z,1005.3
2023-01-06T09:51:52.174Z,1005.3
2023-01-06T09:52:55.441Z,1005.3
2023-01-06T09:53:58.514Z,1005.3
2023-01-06T09:55:02.202Z,1005.3
2023-01-06T09:56:05.603Z,1005.3
2023-01-06T09:57:08.674Z,1005.2
2023-01-06T09:58:11.816Z,1005.2
2023-01-06T09:59:15.380Z,1005.3
2023-01-06T10:00:19.785Z,1005.4
2023-01-06T10:01:23.458Z,1005.2
2023-01-06T10:02:27.563Z,1005.3
2023-01-06T10:03:31.131Z,1005.2
2023-01-06T10:04:34.223Z,1005.2
2023-01-06T10:05:37.089Z,1005.2
2023-01-06T10:06:39.791Z,1005.2
2023-01-06T10:07:43.488Z,1005.2
2023-01-06T10:08:46.913Z,1005.3
2023-01-06T10:09:50.584Z,1005.3
2023-01-06T10:10:53.481Z,1005.2
2023-01-06T10:11:56.841Z,1005.2
2023-01-06T10:13:00.338Z,1005.2
2023-01-06T10:14:03.456Z,1005.2
2023-01-06T10:15:07.034Z,1005.2
2023-01-06T10:16:11.707Z,1005.1
2023-01-06T10:17:15.667Z,1005.1
2023-01-06T10:18:18.763Z,1005.1
2023-01-06T10:19:22.148Z,1005.1
2023-01-06T10:20:25.294Z,1005
2023-01-06T10:21:27.996Z,1005.1
2023-01-06T10:22:31.108Z,1005.1
2023-01-06T10:23:34.236Z,1005.1
2023-01-06T10:24:37.536Z,1005.1
2023-01-06T10:25:40.301Z,1005
2023-01-06T10:26:43.442Z,1005
2023-01-06T10:27:46.348Z,1005.1
2023-01-06T10:28:50.347Z,1005.1
2023-01-06T10:29:53.502Z,1005.1
2023-01-06T10:30:57.448Z,1005.1
2023-01-06T10:32:01.599Z,1005.3
2023-01-06T10:33:05.134Z,1005.1
2023-01-06T10:34:08.337Z,1005.1
2023-01-06T10:35:11.116Z,1005.1
2023-01-06T10:36:14.234Z,1005.1
2023-01-06T10:37:18.242Z,1005.1
2023-01-06T10:38:21.305Z,1005
2023-01-06T10:39:24.133Z,1005.1
2023-01-06T10:40:27.559Z,1005
2023-01-06T10:41:31.000Z,1005
2023-01-06T10:42:33.769Z,1005
2023-01-06T10:43:36.567Z,1004.9
2023-01-06T10:44:39.984Z,1005
2023-01-06T10:45:43.050Z,1005.1
2023-01-06T10:46:46.944Z,1005.1
2023-01-06T10:47:51.662Z,1005
2023-01-06T10:48:55.222Z,1005
2023-01-06T10:49:58.321Z,1005
2023-01-06T10:51:01.740Z,1005
2023-01-06T10:52:04.744Z,1005
2023-01-06T10:53:07.746Z,1005
2023-01-06T10:54:11.529Z,1005
2023-01-06T10:55:14.647Z,1005
2023-01-06T10:56:17.639Z,1005
2023-01-06T10:57:20.089Z,1004.8
2023-01-06T10:58:22.813Z,1004.9
2023-01-06T10:59:26.275Z,1004.9
2023-01-06T11:00:28.863Z,1004.9
2023-01-06T11:01:35.457Z,1004.9
2023-01-06T11:02:40.480Z,1004.9
2023-01-06T11:03:44.687Z,1004.9
2023-01-06T11:04:47.614Z,1004.9
2023-01-06T11:05:51.131Z,1004.9
2023-01-06T11:06:53.855Z,1004.9
2023-01-06T11:07:58.017Z,1004.8
2023-01-06T11:09:01.243Z,1004.9
2023-01-06T11:10:03.555Z,1004.9
2023-01-06T11:11:09.516Z,1004.8
2023-01-06T11:12:31.560Z,1004.8
2023-01-06T11:13:35.246Z,1004.8
2023-01-06T11:14:38.311Z,1004.8
2023-01-06T11:15:41.339Z,1004.9
2023-01-06T11:16:44.271Z,1004.8
2023-01-06T11:17:48.206Z,1004.8
2023-01-06T11:18:52.012Z,1004.8
2023-01-06T11:19:55.464Z,1004.9
2023-01-06T11:20:59.301Z,1004.9
2023-01-06T11:22:02.641Z,1005
2023-01-06T11:23:06.011Z,1005
2023-01-06T11:24:09.454Z,1005
2023-01-06T11:25:12.836Z,1005
2023-01-06T11:26:15.572Z,1004.9
2023-01-06T11:27:19.370Z,1005
2023-01-06T11:28:22.980Z,1005
2023-01-06T11:29:26.132Z,1005
2023-01-06T11:30:29.582Z,1005
2023-01-06T11:31:33.030Z,1004.9
2023-01-06T11:32:36.285Z,1005
2023-01-06T11:33:39.683Z,1004.9
2023-01-06T11:34:43.777Z,1004.9
2023-01-06T11:35:47.179Z,1004.9
2023-01-06T11:36:50.634Z,1004.9
2023-01-06T11:37:53.726Z,1005
2023-01-06T11:38:57.010Z,1004.9
2023-01-06T11:40:11.714Z,1005
2023-01-06T11:41:15.525Z,1004.9
2023-01-06T11:42:18.523Z,1005
2023-01-06T11:43:21.520Z,1004.9
2023-01-06T11:44:25.268Z,1004.9
2023-01-06T11:45:27.935Z,1005
2023-01-06T11:46:31.497Z,1004.9
2023-01-06T11:47:34.193Z,1004.9
2023-01-06T11:48:36.952Z,1005
2023-01-06T11:49:40.918Z,1004.9
2023-01-06T11:50:45.134Z,1005
2023-01-06T11:51:48.246Z,1005
2023-01-06T11:52:51.071Z,1004.9
2023-01-06T11:53:54.779Z,1004.9
2023-01-06T11:54:58.244Z,1004.9
2023-01-06T11:56:01.595Z,1005
2023-01-06T11:57:05.272Z,1004.9
2023-01-06T11:58:08.020Z,1004.9
2023-01-06T11:59:11.024Z,1005
2023-01-06T12:00:14.777Z,1005
2023-01-06T12:01:18.507Z,1005
2023-01-06T12:02:22.682Z,1004.9
2023-01-06T12:03:26.404Z,1004.9
2023-01-06T12:04:29.700Z,1004.9
2023-01-06T12:05:33.935Z,1005
2023-01-06T12:06:37.951Z,1004.9
2023-01-06T12:07:41.431Z,1004.8
2023-01-06T12:08:45.167Z,1004.9
2023-01-06T12:09:48.430Z,1005
2023-01-06T12:10:52.468Z,1004.9
2023-01-06T12:11:56.470Z,1004.8
2023-01-06T12:12:59.835Z,1004.8
2023-01-06T12:14:27.777Z,1004.9
2023-01-06T12:15:32.995Z,1004.9
2023-01-06T12:16:36.238Z,1004.9
2023-01-06T12:17:40.664Z,1004.8
2023-01-06T12:18:43.780Z,1004.8
2023-01-06T12:19:46.495Z,1004.8
2023-01-06T12:20:49.842Z,1004.8
2023-01-06T12:21:54.280Z,1004.8
2023-01-06T12:22:57.837Z,1004.9
2023-01-06T12:24:01.035Z,1004.9
2023-01-06T12:25:04.056Z,1004.9
2023-01-06T12:26:07.684Z,1005
2023-01-06T12:27:10.425Z,1005
2023-01-06T12:28:13.803Z,1004.9
2023-01-06T12:29:17.482Z,1004.9
2023-01-06T12:30:20.567Z,1005
2023-01-06T12:31:23.381Z,1005.1
2023-01-06T12:32:26.447Z,1005.1
2023-01-06T12:33:29.243Z,1005.2
2023-01-06T12:34:32.302Z,1005.2
2023-01-06T12:35:35.665Z,1005.1
2023-01-06T12:36:38.689Z,1005.2
2023-01-06T12:37:42.955Z,1005.2
2023-01-06T12:38:46.117Z,1005.2
2023-01-06T12:39:49.869Z,1005.3
2023-01-06T12:40:52.625Z,1005.3
2023-01-06T12:41:55.568Z,1005.3
2023-01-06T12:42:58.922Z,1005.3
2023-01-06T12:44:02.390Z,1005.3
2023-01-06T12:45:05.514Z,1005.3
2023-01-06T12:46:08.702Z,1005.3
2023-01-06T12:47:12.625Z,1005.3
2023-01-06T12:48:15.691Z,1005.4
2023-01-06T12:49:19.136Z,1005.3
2023-01-06T12:50:22.573Z,1005.3
2023-01-06T12:51:25.095Z,1005.4
2023-01-06T12:52:29.294Z,1005.4
2023-01-06T12:53:33.172Z,1005.4
2023-01-06T12:54:37.344Z,1005.4
2023-01-06T12:55:40.550Z,1005.4
2023-01-06T12:56:43.977Z,1005.4
2023-01-06T12:57:46.966Z,1005.5
2023-01-06T12:58:50.385Z,1005.5
2023-01-06T12:59:53.699Z,1005.6
2023-01-06T13:00:56.673Z,1005.6
2023-01-06T13:02:01.089Z,1005.7
2023-01-06T13:03:05.352Z,1005.7
2023-01-06T13:04:09.646Z,1005.6
2023-01-06T13:05:13.916Z,1005.6
2023-01-06T13:06:17.922Z,1005.6
2023-01-06T13:07:20.517Z,1005.6
2023-01-06T13:08:24.283Z,1005.6
2023-01-06T13:09:28.328Z,1005.6
2023-01-06T13:10:32.091Z,1005.7
2023-01-06T13:11:34.650Z,1005.7
2023-01-06T13:12:37.393Z,1005.7
2023-01-06T13:13:41.074Z,1005.7
2023-01-06T13:14:44.133Z,1005.8
2023-01-06T13:15:46.882Z,1005.8
2023-01-06T13:16:50.686Z,1005.8
2023-01-06T13:17:54.744Z,1005.8